Terminal Aerodrome Forecast
Issued by NWS

Home | Current Version | Previous Version | Text Only | Print | Product List | Glossary On
Versions: 1 2 3 4 5 6 7 8 9 10 11 12 13
000
FTUS45 KTFX 180531
TAFBZN
TAF
KBZN 180531Z 1806/1912 28007KT P6SM OVC070
     FM180900 VRB06KT P6SM SCT050 BKN090
     FM181800 22011KT P6SM BKN120
     FM190100 VRB06KT P6SM SCT120=

USA.gov is the U.S. government's official web portal to all federal, state and local government web resources and services.